createdAt,value
2017-10-02T00:00:09.589Z,0
2017-10-02T00:00:50.067Z,0
2017-10-02T00:01:30.496Z,0
2017-10-02T00:02:10.960Z,0
2017-10-02T00:02:51.415Z,0
2017-10-02T00:03:31.879Z,0
2017-10-02T00:04:12.351Z,0
2017-10-02T00:06:30.493Z,0
2017-10-02T00:07:10.932Z,0
2017-10-02T00:07:51.390Z,0
2017-10-02T00:08:31.829Z,0
2017-10-02T00:09:12.904Z,0
2017-10-02T00:09:53.381Z,0
2017-10-02T00:10:33.810Z,0
2017-10-02T00:11:14.296Z,0
2017-10-02T00:11:54.761Z,0
2017-10-02T00:12:35.199Z,0
2017-10-02T00:13:15.682Z,0
2017-10-02T00:13:56.145Z,0
2017-10-02T00:14:36.576Z,0
2017-10-02T00:15:17.003Z,0
2017-10-02T00:15:57.449Z,0
2017-10-02T00:16:37.967Z,0
2017-10-02T00:17:18.456Z,0
2017-10-02T00:17:58.887Z,0
2017-10-02T00:18:39.334Z,0
2017-10-02T00:19:19.806Z,0
2017-10-02T00:20:00.207Z,0
2017-10-02T00:20:40.658Z,0
2017-10-02T00:22:58.466Z,0
2017-10-02T00:23:38.935Z,0
2017-10-02T00:24:19.395Z,0
2017-10-02T00:24:59.851Z,0
2017-10-02T00:25:40.292Z,0
2017-10-02T00:26:20.730Z,0
2017-10-02T00:28:48.680Z,0
2017-10-02T00:29:29.123Z,0
2017-10-02T00:30:09.591Z,0
2017-10-02T00:30:50.044Z,0
2017-10-02T00:31:30.459Z,0
2017-10-02T00:32:10.924Z,0
2017-10-02T00:32:51.320Z,0
2017-10-02T00:33:31.757Z,0
2017-10-02T00:35:44.506Z,0
2017-10-02T00:36:24.975Z,0
2017-10-02T00:37:05.414Z,0
2017-10-02T00:37:45.896Z,0
2017-10-02T00:38:26.296Z,0
2017-10-02T00:39:06.738Z,0
2017-10-02T00:39:47.161Z,0
2017-10-02T00:40:27.624Z,0
2017-10-02T00:41:08.073Z,0
2017-10-02T00:41:48.456Z,0
2017-10-02T00:42:28.895Z,0
2017-10-02T00:43:09.310Z,0
2017-10-02T00:45:37.266Z,0
2017-10-02T00:46:17.710Z,0
2017-10-02T00:46:58.203Z,0
2017-10-02T00:47:38.683Z,0
2017-10-02T00:48:19.117Z,0
2017-10-02T00:48:59.555Z,0
2017-10-02T00:49:39.980Z,0
2017-10-02T00:50:20.404Z,0
2017-10-02T00:51:00.849Z,0
2017-10-02T00:51:41.374Z,0
2017-10-02T00:52:21.828Z,0
2017-10-02T00:53:02.305Z,0
2017-10-02T00:53:42.737Z,0
2017-10-02T00:54:23.188Z,0
2017-10-02T00:55:03.661Z,0
2017-10-02T00:55:44.103Z,0
2017-10-02T00:56:24.541Z,0
2017-10-02T00:57:04.998Z,0
2017-10-02T00:57:46.011Z,0
2017-10-02T00:58:26.459Z,0
2017-10-02T00:59:06.905Z,0
2017-10-02T00:59:47.347Z,0
2017-10-02T01:00:27.798Z,0
2017-10-02T01:01:08.253Z,0
2017-10-02T01:01:48.703Z,0
2017-10-02T01:02:29.147Z,0
2017-10-02T01:03:09.597Z,0
2017-10-02T01:03:50.043Z,0
2017-10-02T01:04:30.505Z,0
2017-10-02T01:05:10.931Z,0
2017-10-02T01:05:51.388Z,0
2017-10-02T01:06:31.878Z,0
2017-10-02T01:07:12.318Z,0
2017-10-02T01:07:52.740Z,0
2017-10-02T01:08:33.286Z,0
2017-10-02T01:09:13.729Z,0
2017-10-02T01:09:54.188Z,0
2017-10-02T01:10:34.630Z,0
2017-10-02T01:11:15.125Z,0
2017-10-02T01:11:55.526Z,0
2017-10-02T01:12:35.996Z,0
2017-10-02T01:15:03.980Z,0
2017-10-02T01:15:44.437Z,0
2017-10-02T01:16:24.938Z,0
2017-10-02T01:17:05.367Z,0
2017-10-02T01:17:45.819Z,0
2017-10-02T01:18:26.238Z,0
2017-10-02T01:20:54.185Z,0
2017-10-02T01:21:34.583Z,0
2017-10-02T01:24:07.578Z,0
2017-10-02T01:24:48.024Z,0
2017-10-02T01:25:28.475Z,0
2017-10-02T01:26:08.955Z,0
2017-10-02T01:28:06.642Z,0
2017-10-02T01:28:47.082Z,0
2017-10-02T01:29:27.587Z,0
2017-10-02T01:30:08.045Z,0
2017-10-02T01:30:48.457Z,0
2017-10-02T01:31:28.877Z,0
2017-10-02T01:32:09.295Z,0
2017-10-02T01:32:49.732Z,0
2017-10-02T01:33:30.148Z,0
2017-10-02T01:34:10.601Z,0
2017-10-02T01:34:51.054Z,0
2017-10-02T01:35:31.462Z,0
2017-10-02T01:36:11.913Z,0
2017-10-02T01:36:52.348Z,0
2017-10-02T01:39:20.386Z,0
2017-10-02T01:40:00.841Z,0
2017-10-02T01:40:41.328Z,0
2017-10-02T01:41:21.785Z,0
2017-10-02T01:42:02.227Z,0
2017-10-02T01:42:42.650Z,0
2017-10-02T01:43:23.132Z,0
2017-10-02T01:44:03.583Z,0
2017-10-02T01:44:44.049Z,0
2017-10-02T01:45:24.479Z,0
2017-10-02T01:46:04.950Z,0
2017-10-02T01:46:45.441Z,0
2017-10-02T01:47:25.913Z,0
2017-10-02T01:48:06.528Z,0
2017-10-02T01:48:46.948Z,0
2017-10-02T01:49:27.396Z,0
2017-10-02T01:50:07.920Z,0
2017-10-02T01:50:48.336Z,0
2017-10-02T01:51:28.797Z,0
2017-10-02T01:52:09.245Z,0
2017-10-02T01:54:21.972Z,0
2017-10-02T01:55:02.404Z,0
2017-10-02T01:55:42.874Z,0
2017-10-02T01:56:23.332Z,0
2017-10-02T01:57:03.713Z,0
2017-10-02T01:57:44.953Z,0
2017-10-02T01:58:25.410Z,0
2017-10-02T01:59:05.860Z,0
2017-10-02T01:59:46.316Z,0
2017-10-02T02:00:26.756Z,0
2017-10-02T02:01:07.202Z,0
2017-10-02T02:01:47.644Z,0
2017-10-02T02:02:28.084Z,0
2017-10-02T02:03:08.546Z,0
2017-10-02T02:03:48.988Z,0
2017-10-02T02:04:29.445Z,0
2017-10-02T02:05:09.901Z,0
2017-10-02T02:05:50.388Z,0
2017-10-02T02:06:30.837Z,0
2017-10-02T02:07:11.284Z,0
2017-10-02T02:07:51.738Z,0
2017-10-02T02:08:32.177Z,0
2017-10-02T02:09:12.637Z,0
2017-10-02T02:09:53.047Z,0
2017-10-02T02:10:33.529Z,0
2017-10-02T02:11:13.922Z,0
2017-10-02T02:11:54.390Z,0
2017-10-02T02:12:34.796Z,0
2017-10-02T02:13:15.266Z,0
2017-10-02T02:13:55.692Z,0
2017-10-02T02:14:36.150Z,0
2017-10-02T02:15:16.609Z,0
2017-10-02T02:15:57.033Z,0
2017-10-02T02:16:37.498Z,0
2017-10-02T02:17:17.941Z,0
2017-10-02T02:17:58.405Z,0
2017-10-02T02:18:38.794Z,0
2017-10-02T02:19:19.257Z,0
2017-10-02T02:19:59.694Z,0
2017-10-02T02:20:40.204Z,0
2017-10-02T02:21:20.652Z,0
2017-10-02T02:22:01.120Z,0
2017-10-02T02:22:41.567Z,0
2017-10-02T02:23:21.967Z,0
2017-10-02T02:24:02.444Z,0
2017-10-02T02:24:42.904Z,0
2017-10-02T02:25:23.394Z,0
2017-10-02T02:27:21.069Z,0
2017-10-02T02:28:01.518Z,0
2017-10-02T02:28:42.026Z,0
2017-10-02T02:29:22.499Z,0
2017-10-02T02:30:02.971Z,0
2017-10-02T02:30:43.441Z,0
2017-10-02T02:31:23.910Z,0
2017-10-02T02:32:04.370Z,0
2017-10-02T02:32:44.795Z,0
2017-10-02T02:33:25.240Z,0
2017-10-02T02:34:05.672Z,0
2017-10-02T02:34:46.147Z,0
2017-10-02T02:35:26.587Z,0
2017-10-02T02:36:07.021Z,0
2017-10-02T02:36:47.448Z,0
2017-10-02T02:39:15.506Z,0
2017-10-02T02:39:55.955Z,0
2017-10-02T02:40:36.392Z,0
2017-10-02T02:41:16.832Z,0
2017-10-02T02:41:57.302Z,0
2017-10-02T02:42:37.752Z,0
2017-10-02T02:43:18.199Z,0
2017-10-02T02:43:58.625Z,0
2017-10-02T02:44:39.134Z,0
2017-10-02T02:45:19.547Z,0
2017-10-02T02:46:00.001Z,0
2017-10-02T02:46:40.459Z,0
2017-10-02T02:47:20.966Z,0
2017-10-02T02:48:01.400Z,0
2017-10-02T02:48:41.836Z,0
2017-10-02T02:49:22.294Z,0
2017-10-02T02:50:02.750Z,0
2017-10-02T02:52:30.671Z,0
2017-10-02T02:53:11.101Z,0
2017-10-02T02:53:51.633Z,0
2017-10-02T02:54:31.980Z,0
2017-10-02T02:55:12.405Z,0
2017-10-02T02:55:52.838Z,0
2017-10-02T02:56:33.306Z,0
2017-10-02T02:57:13.772Z,0
2017-10-02T02:57:54.209Z,0
2017-10-02T02:58:34.643Z,0
2017-10-02T02:59:15.135Z,0
2017-10-02T02:59:55.547Z,0
2017-10-02T03:00:35.990Z,0
2017-10-02T03:01:16.409Z,0
2017-10-02T03:01:56.848Z,0
2017-10-02T03:04:24.779Z,0
2017-10-02T03:05:05.235Z,0
2017-10-02T03:05:45.720Z,0
2017-10-02T03:06:26.175Z,0
2017-10-02T03:07:06.629Z,0
2017-10-02T03:07:47.065Z,0
2017-10-02T03:08:27.512Z,0
2017-10-02T03:09:07.973Z,0
2017-10-02T03:09:48.432Z,0
2017-10-02T03:10:28.893Z,0
2017-10-02T03:11:09.387Z,0
2017-10-02T03:11:49.817Z,0
2017-10-02T03:12:30.218Z,0
2017-10-02T03:13:10.666Z,0
2017-10-02T03:13:51.112Z,0
2017-10-02T03:14:31.590Z,0
2017-10-02T03:15:12.087Z,0
2017-10-02T03:15:52.488Z,0
2017-10-02T03:16:32.973Z,0
2017-10-02T03:17:13.405Z,0
2017-10-02T03:17:54.810Z,0
2017-10-02T03:18:35.244Z,0
2017-10-02T03:19:15.689Z,0
2017-10-02T03:19:56.127Z,0
2017-10-02T03:20:36.564Z,0
2017-10-02T03:21:16.992Z,0
2017-10-02T03:21:57.439Z,0
2017-10-02T03:22:37.873Z,0
2017-10-02T03:23:18.323Z,0
2017-10-02T03:23:58.766Z,0
2017-10-02T03:24:39.249Z,0
2017-10-02T03:25:19.681Z,0
2017-10-02T03:26:00.091Z,0
2017-10-02T03:28:28.048Z,0
2017-10-02T03:29:08.525Z,0
2017-10-02T03:29:48.945Z,0
2017-10-02T03:30:29.421Z,0
2017-10-02T03:31:09.879Z,0
2017-10-02T03:31:50.320Z,0
2017-10-02T03:32:30.787Z,0
2017-10-02T03:33:11.184Z,0
2017-10-02T03:33:51.644Z,0
2017-10-02T03:34:32.067Z,0
2017-10-02T03:35:12.528Z,0
2017-10-02T03:35:52.957Z,0
2017-10-02T03:38:05.663Z,0
2017-10-02T03:38:46.113Z,0
2017-10-02T03:39:26.535Z,0
2017-10-02T03:40:06.990Z,0
2017-10-02T03:40:47.421Z,0
2017-10-02T03:41:28.674Z,0
2017-10-02T03:42:09.142Z,0
2017-10-02T03:42:49.574Z,0
2017-10-02T03:43:30.007Z,0
2017-10-02T03:44:10.410Z,0
2017-10-02T03:44:50.863Z,0
2017-10-02T03:45:31.311Z,0
2017-10-02T03:46:11.806Z,0
2017-10-02T03:46:52.217Z,0
2017-10-02T03:47:32.662Z,0
2017-10-02T03:48:13.112Z,0
2017-10-02T03:48:53.568Z,0
2017-10-02T03:49:34.028Z,0
2017-10-02T03:50:14.445Z,0
2017-10-02T03:50:55.870Z,0
2017-10-02T03:51:36.284Z,0
2017-10-02T03:52:16.741Z,0
2017-10-02T03:52:57.176Z,0
2017-10-02T03:53:37.624Z,0
2017-10-02T03:54:18.041Z,0
2017-10-02T03:54:58.533Z,0
2017-10-02T03:55:38.960Z,0
2017-10-02T03:56:19.430Z,0
2017-10-02T03:56:59.874Z,0
2017-10-02T03:57:40.356Z,0
2017-10-02T03:58:20.802Z,0
2017-10-02T03:59:01.251Z,0
2017-10-02T03:59:41.692Z,0
2017-10-02T04:00:22.138Z,0
2017-10-02T04:01:02.619Z,0
2017-10-02T04:01:43.050Z,0
2017-10-02T04:02:23.495Z,0
2017-10-02T04:03:03.933Z,0
2017-10-02T04:03:44.382Z,0
2017-10-02T04:04:24.816Z,0
2017-10-02T04:05:05.278Z,0
2017-10-02T04:05:45.724Z,0
2017-10-02T04:06:26.216Z,0
2017-10-02T04:07:06.613Z,0
2017-10-02T04:07:47.045Z,0
2017-10-02T04:08:27.537Z,0
2017-10-02T04:09:07.937Z,0
2017-10-02T04:09:48.387Z,0
2017-10-02T04:10:28.845Z,0
2017-10-02T04:11:09.275Z,0
2017-10-02T04:11:49.679Z,0
2017-10-02T04:12:30.112Z,0
2017-10-02T04:13:10.553Z,0
2017-10-02T04:13:51.005Z,0
2017-10-02T04:14:31.475Z,0
2017-10-02T04:15:11.878Z,0
2017-10-02T04:15:52.333Z,0
2017-10-02T04:16:32.725Z,0
2017-10-02T04:17:13.219Z,0
2017-10-02T04:17:53.607Z,0
2017-10-02T04:18:34.067Z,0
2017-10-02T04:19:14.495Z,0
2017-10-02T04:19:54.931Z,0
2017-10-02T04:20:35.405Z,0
2017-10-02T04:21:15.895Z,0
2017-10-02T04:21:56.406Z,0
2017-10-02T04:22:36.832Z,0
2017-10-02T04:23:17.281Z,0
2017-10-02T04:23:57.837Z,0
2017-10-02T04:24:38.346Z,0
2017-10-02T04:25:18.764Z,0
2017-10-02T04:25:59.194Z,0
2017-10-02T04:26:39.657Z,0
2017-10-02T04:27:20.109Z,0
2017-10-02T04:28:00.538Z,0
2017-10-02T04:28:40.980Z,0
2017-10-02T04:29:21.433Z,0
2017-10-02T04:30:01.880Z,0
2017-10-02T04:30:42.299Z,0
2017-10-02T04:31:22.723Z,0
2017-10-02T04:32:03.150Z,0
2017-10-02T04:32:43.583Z,0
2017-10-02T04:33:24.007Z,0
2017-10-02T04:34:04.452Z,0
2017-10-02T04:34:44.877Z,0
2017-10-02T04:35:25.335Z,0
2017-10-02T04:36:05.735Z,0
2017-10-02T04:36:46.153Z,0
2017-10-02T04:37:26.671Z,0
2017-10-02T04:38:07.099Z,0
2017-10-02T04:40:04.720Z,0
2017-10-02T04:40:45.184Z,0
2017-10-02T04:41:25.621Z,0
2017-10-02T04:42:06.122Z,0
2017-10-02T04:42:46.568Z,0
2017-10-02T04:43:27.013Z,0
2017-10-02T04:44:07.470Z,0
2017-10-02T04:44:47.914Z,0
2017-10-02T04:45:28.354Z,0
2017-10-02T04:46:08.824Z,0
2017-10-02T04:48:41.867Z,0
2017-10-02T04:49:22.288Z,0
2017-10-02T04:50:02.740Z,0
2017-10-02T04:52:15.434Z,0
2017-10-02T04:52:55.890Z,0
2017-10-02T04:53:36.340Z,0
2017-10-02T04:54:16.793Z,0
2017-10-02T04:54:57.185Z,0
2017-10-02T04:55:37.632Z,0
2017-10-02T04:56:18.059Z,0
2017-10-02T04:56:58.526Z,0
2017-10-02T04:57:38.990Z,0
2017-10-02T04:58:19.433Z,4
2017-10-02T04:58:59.873Z,4
2017-10-02T04:59:40.322Z,0
2017-10-02T05:00:20.771Z,0
2017-10-02T05:01:01.208Z,0
2017-10-02T05:01:41.669Z,4
2017-10-02T05:02:22.110Z,4
2017-10-02T05:03:02.544Z,0
2017-10-02T05:03:42.995Z,4
2017-10-02T05:04:23.435Z,0
2017-10-02T05:05:03.834Z,4
2017-10-02T05:05:44.267Z,4
2017-10-02T05:06:24.724Z,4
2017-10-02T05:07:05.157Z,4
2017-10-02T05:07:45.641Z,8
2017-10-02T05:08:26.051Z,8
2017-10-02T05:09:06.498Z,8
2017-10-02T05:09:46.936Z,12
2017-10-02T05:10:27.395Z,12
2017-10-02T05:11:07.851Z,12
2017-10-02T05:11:48.267Z,12
2017-10-02T05:12:28.692Z,16
2017-10-02T05:13:10.033Z,16
2017-10-02T05:13:50.470Z,20
2017-10-02T05:14:30.921Z,24
2017-10-02T05:15:11.330Z,20
2017-10-02T05:15:51.855Z,24
2017-10-02T05:16:32.286Z,28
2017-10-02T05:17:12.717Z,28
2017-10-02T05:17:53.151Z,32
2017-10-02T05:18:33.607Z,32
2017-10-02T05:19:14.040Z,40
2017-10-02T05:19:54.472Z,40
2017-10-02T05:20:34.909Z,44
2017-10-02T05:22:47.692Z,60
2017-10-02T05:23:28.120Z,68
2017-10-02T05:24:08.657Z,80
2017-10-02T05:24:49.088Z,84
2017-10-02T05:25:29.564Z,96
2017-10-02T05:26:10.063Z,104
2017-10-02T05:26:50.468Z,116
2017-10-02T05:27:30.931Z,132
2017-10-02T05:28:11.354Z,144
2017-10-02T05:28:51.809Z,156
2017-10-02T05:29:32.253Z,172
2017-10-02T05:31:45.000Z,216
2017-10-02T05:32:25.494Z,224
2017-10-02T05:33:05.942Z,236
2017-10-02T05:33:46.397Z,248
2017-10-02T05:34:26.850Z,252
2017-10-02T05:35:07.308Z,256
2017-10-02T05:35:47.751Z,260
2017-10-02T05:36:28.223Z,260
2017-10-02T05:37:08.725Z,260
2017-10-02T05:37:49.322Z,260
2017-10-02T05:38:29.809Z,264
2017-10-02T05:39:10.332Z,268
2017-10-02T05:39:50.813Z,276
2017-10-02T05:40:31.305Z,288
2017-10-02T05:41:11.745Z,304
2017-10-02T05:41:52.232Z,320
2017-10-02T05:42:32.783Z,340
2017-10-02T05:43:13.191Z,360
2017-10-02T05:43:53.676Z,384
2017-10-02T05:44:34.145Z,408
2017-10-02T05:45:14.629Z,432
2017-10-02T05:45:55.151Z,452
2017-10-02T05:46:35.604Z,472
2017-10-02T05:47:16.102Z,488
2017-10-02T05:47:56.482Z,508
2017-10-02T05:48:36.923Z,524
2017-10-02T05:49:17.390Z,540
2017-10-02T05:49:57.818Z,556
2017-10-02T05:50:38.853Z,580
2017-10-02T05:51:19.293Z,600
2017-10-02T05:51:59.745Z,608
2017-10-02T05:52:40.214Z,616
2017-10-02T05:54:53.300Z,616
2017-10-02T05:55:33.750Z,620
2017-10-02T05:56:14.222Z,620
2017-10-02T05:56:54.703Z,624
2017-10-02T05:57:35.122Z,616
2017-10-02T05:58:15.569Z,612
2017-10-02T05:58:56.009Z,612
2017-10-02T05:59:36.435Z,616
2017-10-02T06:00:16.879Z,620
2017-10-02T06:00:57.306Z,628
2017-10-02T06:01:37.771Z,636
2017-10-02T06:02:18.209Z,648
2017-10-02T06:02:58.670Z,664
2017-10-02T06:03:39.096Z,684
2017-10-02T06:04:19.545Z,700
2017-10-02T06:04:59.997Z,712
2017-10-02T06:05:40.466Z,716
2017-10-02T06:06:20.923Z,724
2017-10-02T06:08:38.700Z,776
2017-10-02T06:09:19.168Z,800
2017-10-02T06:09:59.655Z,828
2017-10-02T06:10:40.107Z,852
2017-10-02T06:11:20.546Z,884
2017-10-02T06:12:01.709Z,904
2017-10-02T06:12:42.137Z,920
2017-10-02T06:13:22.574Z,932
2017-10-02T06:14:03.059Z,940
2017-10-02T06:14:43.534Z,940
2017-10-02T06:17:01.389Z,916
2017-10-02T06:17:41.786Z,908
2017-10-02T06:18:22.209Z,896
2017-10-02T06:19:02.629Z,872
2017-10-02T06:19:43.070Z,856
2017-10-02T06:20:23.496Z,844
2017-10-02T06:21:03.928Z,840
2017-10-02T06:21:44.456Z,848
2017-10-02T06:24:12.362Z,908
2017-10-02T06:24:52.895Z,920
2017-10-02T06:25:33.304Z,940
2017-10-02T06:26:13.787Z,952
2017-10-02T06:26:54.219Z,968
2017-10-02T06:27:34.694Z,992
2017-10-02T06:28:15.100Z,1016
2017-10-02T06:28:55.520Z,1044
2017-10-02T06:29:35.950Z,1076
2017-10-02T06:30:16.382Z,1120
2017-10-02T06:30:56.858Z,1176
2017-10-02T06:31:37.278Z,1236
2017-10-02T06:32:17.706Z,1264
2017-10-02T06:32:58.132Z,1320
2017-10-02T06:33:38.623Z,1408
2017-10-02T06:34:19.066Z,1508
2017-10-02T06:34:59.573Z,1632
2017-10-02T06:35:40.023Z,1780
2017-10-02T06:36:20.531Z,1956
2017-10-02T06:37:00.947Z,2124
2017-10-02T06:37:41.418Z,2268
2017-10-02T06:38:21.861Z,2376
2017-10-02T06:39:02.325Z,2484
2017-10-02T06:39:42.777Z,2620
2017-10-02T06:40:23.244Z,2736
2017-10-02T06:41:03.704Z,2876
2017-10-02T06:41:44.155Z,3020
2017-10-02T06:42:24.618Z,3236
2017-10-02T06:43:05.036Z,3468
2017-10-02T06:43:45.478Z,3684
2017-10-02T06:44:25.925Z,3872
2017-10-02T06:45:06.387Z,4028
2017-10-02T06:45:46.863Z,4164
2017-10-02T06:46:27.372Z,4252
2017-10-02T06:47:07.815Z,4260
2017-10-02T06:47:48.245Z,4220
2017-10-02T06:48:28.693Z,4180
2017-10-02T06:49:09.134Z,4124
2017-10-02T06:49:50.576Z,4000
2017-10-02T06:50:31.047Z,3812
2017-10-02T06:51:11.487Z,3608
2017-10-02T06:51:52.656Z,3376
2017-10-02T06:52:33.077Z,3156
2017-10-02T06:53:13.554Z,2964
2017-10-02T06:53:54.561Z,2804
2017-10-02T06:54:35.030Z,2692
2017-10-02T06:55:15.554Z,2632
2017-10-02T06:55:56.028Z,2608
2017-10-02T06:56:36.457Z,2620
2017-10-02T06:57:16.909Z,2656
2017-10-02T06:57:57.361Z,2732
2017-10-02T06:58:37.812Z,2808
2017-10-02T06:59:18.261Z,2888
2017-10-02T06:59:58.695Z,2992
2017-10-02T07:00:39.164Z,3084
2017-10-02T07:01:19.643Z,3160
2017-10-02T07:02:00.144Z,3208
2017-10-02T07:02:40.650Z,3252
2017-10-02T07:03:21.083Z,3304
2017-10-02T07:04:01.519Z,3348
2017-10-02T07:04:41.941Z,3404
2017-10-02T07:05:22.416Z,3464
2017-10-02T07:06:02.869Z,3500
2017-10-02T07:06:43.324Z,3528
2017-10-02T07:07:23.825Z,3544
2017-10-02T07:08:04.297Z,3556
2017-10-02T07:08:44.752Z,3556
2017-10-02T07:09:25.202Z,3544
2017-10-02T07:10:05.669Z,3528
2017-10-02T07:10:46.111Z,3524
2017-10-02T07:11:26.690Z,3544
2017-10-02T07:12:07.162Z,3612
2017-10-02T07:12:47.629Z,3732
2017-10-02T07:13:28.074Z,3916
2017-10-02T07:14:08.520Z,4120
2017-10-02T07:14:48.975Z,4316
2017-10-02T07:15:29.437Z,4484
2017-10-02T07:16:09.875Z,4644
2017-10-02T07:16:50.302Z,4828
2017-10-02T07:17:30.764Z,5016
2017-10-02T07:18:11.165Z,5244
2017-10-02T07:18:51.616Z,5480
2017-10-02T07:19:32.042Z,5688
2017-10-02T07:20:12.500Z,5840
2017-10-02T07:20:52.936Z,5912
2017-10-02T07:21:33.410Z,5940
2017-10-02T07:22:13.850Z,5960
2017-10-02T07:22:54.304Z,5976
2017-10-02T07:23:34.735Z,6008
2017-10-02T07:24:15.172Z,5980
2017-10-02T07:24:55.636Z,5912
2017-10-02T07:25:36.084Z,5828
2017-10-02T07:26:16.571Z,5720
2017-10-02T07:26:57.067Z,5580
2017-10-02T07:27:37.551Z,5452
2017-10-02T07:28:18.034Z,5308
2017-10-02T07:28:58.486Z,5168
2017-10-02T07:29:38.930Z,5060
2017-10-02T07:30:19.379Z,4960
2017-10-02T07:30:59.864Z,4840
2017-10-02T07:31:40.441Z,4688
2017-10-02T07:33:38.122Z,4232
2017-10-02T07:34:18.576Z,4148
2017-10-02T07:34:59.053Z,4100
2017-10-02T07:35:39.527Z,4028
2017-10-02T07:36:19.978Z,3948
2017-10-02T07:37:00.429Z,3856
2017-10-02T07:37:40.853Z,3768
2017-10-02T07:38:21.312Z,3696
2017-10-02T07:39:01.817Z,3644
2017-10-02T07:39:42.242Z,3600
2017-10-02T07:40:22.682Z,3548
2017-10-02T07:41:03.106Z,3496
2017-10-02T07:41:43.590Z,3432
2017-10-02T07:42:24.043Z,3364
2017-10-02T07:43:04.496Z,3292
2017-10-02T07:43:44.974Z,3236
2017-10-02T07:44:25.423Z,3176
2017-10-02T07:45:05.877Z,3124
2017-10-02T07:45:46.308Z,3084
2017-10-02T07:46:26.768Z,3052
2017-10-02T07:47:07.264Z,3036
2017-10-02T07:47:47.724Z,3020
2017-10-02T07:48:28.174Z,3012
2017-10-02T07:49:08.642Z,3004
2017-10-02T07:49:49.071Z,3008
2017-10-02T07:50:30.274Z,2992
2017-10-02T07:51:10.733Z,2992
2017-10-02T07:51:51.185Z,3012
2017-10-02T07:52:31.681Z,3072
2017-10-02T07:53:12.150Z,3176
2017-10-02T07:53:52.649Z,3320
2017-10-02T07:54:33.063Z,3472
2017-10-02T07:55:13.518Z,3644
2017-10-02T07:55:53.959Z,3800
2017-10-02T07:56:34.402Z,3936
2017-10-02T07:57:14.886Z,4044
2017-10-02T07:57:55.330Z,4152
2017-10-02T07:58:35.799Z,4268
2017-10-02T07:59:16.278Z,4420
2017-10-02T07:59:56.732Z,4616
2017-10-02T08:00:37.156Z,4824
2017-10-02T08:01:17.594Z,5036
2017-10-02T08:03:30.313Z,5816
2017-10-02T08:04:10.792Z,5964
2017-10-02T08:04:51.299Z,6164
2017-10-02T08:05:31.749Z,6312
2017-10-02T08:06:12.171Z,6456
2017-10-02T08:06:52.671Z,6568
2017-10-02T08:07:33.027Z,6664
2017-10-02T08:08:13.481Z,6680
2017-10-02T08:08:53.957Z,6652
2017-10-02T08:09:34.394Z,6584
2017-10-02T08:10:14.859Z,6464
2017-10-02T08:12:12.510Z,5928
2017-10-02T08:12:53.019Z,5776
2017-10-02T08:13:33.427Z,5640
2017-10-02T08:14:14.817Z,5448
2017-10-02T08:14:55.249Z,5212
2017-10-02T08:15:35.696Z,4944
2017-10-02T08:16:16.209Z,4688
2017-10-02T08:16:56.645Z,4436
2017-10-02T08:17:37.094Z,4264
2017-10-02T08:18:17.566Z,4244
2017-10-02T08:18:58.009Z,4264
2017-10-02T08:19:38.439Z,4332
2017-10-02T08:20:18.882Z,4396
2017-10-02T08:20:59.345Z,4480
2017-10-02T08:21:39.805Z,4588
2017-10-02T08:22:20.239Z,4672
2017-10-02T08:23:01.577Z,4744
2017-10-02T08:23:42.035Z,4760
2017-10-02T08:24:22.509Z,4732
2017-10-02T08:25:02.974Z,4728
2017-10-02T08:25:43.410Z,4656
2017-10-02T08:26:23.897Z,4500
2017-10-02T08:27:04.295Z,4312
2017-10-02T08:27:44.730Z,4140
2017-10-02T08:28:25.188Z,3932
2017-10-02T08:29:05.623Z,3856
2017-10-02T08:29:46.078Z,3840
2017-10-02T08:30:26.530Z,3828
2017-10-02T08:31:06.976Z,3840
2017-10-02T08:31:47.427Z,3844
2017-10-02T08:32:27.878Z,3864
2017-10-02T08:33:08.357Z,3948
2017-10-02T08:33:48.756Z,4100
2017-10-02T08:34:29.205Z,4212
2017-10-02T08:35:09.634Z,4204
2017-10-02T08:35:50.099Z,4100
2017-10-02T08:36:30.511Z,3984
2017-10-02T08:37:10.951Z,3860
2017-10-02T08:37:51.465Z,3796
2017-10-02T08:38:31.916Z,3732
2017-10-02T08:39:12.393Z,3676
2017-10-02T08:39:52.857Z,3652
2017-10-02T08:40:33.305Z,3672
2017-10-02T08:41:13.756Z,3792
2017-10-02T08:41:54.215Z,4000
2017-10-02T08:42:34.629Z,4308
2017-10-02T08:43:15.094Z,4580
2017-10-02T08:43:55.564Z,4744
2017-10-02T08:44:36.039Z,4884
2017-10-02T08:45:16.531Z,5016
2017-10-02T08:45:56.974Z,5112
2017-10-02T08:46:37.410Z,5216
2017-10-02T08:47:17.834Z,5268
2017-10-02T08:47:58.262Z,5388
2017-10-02T08:48:38.722Z,5548
2017-10-02T08:49:19.217Z,5668
2017-10-02T08:49:59.632Z,5868
2017-10-02T08:50:40.087Z,6004
2017-10-02T08:51:20.525Z,6252
2017-10-02T08:52:01.004Z,6508
2017-10-02T08:52:41.446Z,6568
2017-10-02T08:53:21.924Z,6612
2017-10-02T08:54:02.354Z,6844
2017-10-02T08:54:42.826Z,6964
2017-10-02T08:55:23.302Z,6752
2017-10-02T08:56:03.759Z,6436
2017-10-02T08:56:44.243Z,6276
2017-10-02T08:57:24.720Z,6240
2017-10-02T08:58:05.230Z,6224
2017-10-02T08:58:45.709Z,6356
2017-10-02T08:59:26.213Z,6580
2017-10-02T09:00:06.642Z,6784
2017-10-02T09:00:47.207Z,6884
2017-10-02T09:01:27.654Z,6920
2017-10-02T09:02:08.107Z,6900
2017-10-02T09:02:48.551Z,7116
2017-10-02T09:03:29.001Z,7276
2017-10-02T09:04:09.433Z,7188
2017-10-02T09:04:49.924Z,7088
2017-10-02T09:05:30.350Z,6988
2017-10-02T09:06:10.789Z,6988
2017-10-02T09:06:51.228Z,7000
2017-10-02T09:07:31.671Z,6932
2017-10-02T09:08:12.190Z,6808
2017-10-02T09:08:52.629Z,6932
2017-10-02T09:09:33.078Z,7260
2017-10-02T09:10:13.527Z,7528
2017-10-02T09:10:53.973Z,7824
2017-10-02T09:11:34.426Z,8132
2017-10-02T09:12:14.856Z,8276
2017-10-02T09:12:55.304Z,8260
2017-10-02T09:13:35.823Z,7956
2017-10-02T09:14:16.215Z,7580
2017-10-02T09:14:56.670Z,7488
2017-10-02T09:15:37.078Z,7580
2017-10-02T09:16:17.559Z,7668
2017-10-02T09:16:57.992Z,7848
2017-10-02T09:17:38.485Z,7836
2017-10-02T09:18:18.909Z,7736
2017-10-02T09:18:59.352Z,7984
2017-10-02T09:19:39.786Z,8196
2017-10-02T09:20:20.226Z,8492
2017-10-02T09:21:00.694Z,8500
2017-10-02T09:21:41.203Z,8496
2017-10-02T09:22:21.651Z,8428
2017-10-02T09:23:02.111Z,8588
2017-10-02T09:23:42.567Z,8864
2017-10-02T09:24:22.982Z,9116
2017-10-02T09:25:03.451Z,9484
2017-10-02T09:25:43.899Z,9604
2017-10-02T09:26:24.347Z,9512
2017-10-02T09:27:04.802Z,9652
2017-10-02T09:27:45.276Z,10000
2017-10-02T09:28:25.731Z,10272
2017-10-02T09:29:06.225Z,10344
2017-10-02T09:29:46.742Z,10448
2017-10-02T09:30:27.242Z,10456
2017-10-02T09:31:07.680Z,10400
2017-10-02T09:33:35.601Z,9776
2017-10-02T09:34:16.071Z,9488
2017-10-02T09:34:56.563Z,9232
2017-10-02T09:35:37.065Z,9008
2017-10-02T09:37:49.752Z,8292
2017-10-02T09:38:30.245Z,8144
2017-10-02T09:39:10.725Z,8048
2017-10-02T09:39:51.176Z,8024
2017-10-02T09:40:31.608Z,8072
2017-10-02T09:41:12.072Z,8092
2017-10-02T09:41:52.545Z,8060
2017-10-02T09:42:32.995Z,8224
2017-10-02T09:43:13.448Z,8528
2017-10-02T09:43:53.885Z,8540
2017-10-02T09:44:34.369Z,8636
2017-10-02T09:46:52.158Z,8612
2017-10-02T09:47:32.590Z,8488
2017-10-02T09:48:13.059Z,8432
2017-10-02T09:50:10.702Z,8264
2017-10-02T09:50:51.196Z,8164
2017-10-02T09:51:31.674Z,8104
2017-10-02T09:52:12.149Z,8044
2017-10-02T09:52:52.584Z,8108
2017-10-02T09:54:50.192Z,8880
2017-10-02T09:55:30.683Z,9200
2017-10-02T09:56:11.160Z,9420
2017-10-02T09:56:51.639Z,9652
2017-10-02T09:57:32.088Z,9780
2017-10-02T09:58:12.544Z,9888
2017-10-02T09:58:52.985Z,10120
2017-10-02T09:59:33.435Z,10376
2017-10-02T10:00:13.857Z,10688
2017-10-02T10:00:54.303Z,10964
2017-10-02T10:01:34.772Z,11180
2017-10-02T10:02:15.247Z,11356
2017-10-02T10:02:55.777Z,11340
2017-10-02T10:03:36.279Z,11224
2017-10-02T10:04:16.723Z,11112
2017-10-02T10:04:57.176Z,10984
2017-10-02T10:05:37.617Z,10948
2017-10-02T10:06:18.023Z,11028
2017-10-02T10:06:58.526Z,11172
2017-10-02T10:07:38.985Z,11240
2017-10-02T10:08:19.455Z,11232
2017-10-02T10:08:59.964Z,11176
2017-10-02T10:09:40.453Z,11228
2017-10-02T10:11:58.595Z,11188
2017-10-02T10:12:40.719Z,10904
2017-10-02T10:13:21.256Z,10536
2017-10-02T10:14:01.713Z,10248
2017-10-02T10:14:42.099Z,10232
2017-10-02T10:15:22.547Z,10392
2017-10-02T10:16:03.009Z,10464
2017-10-02T10:16:43.527Z,10372
2017-10-02T10:17:23.950Z,10244
2017-10-02T10:18:04.409Z,10168
2017-10-02T10:18:44.872Z,9960
2017-10-02T10:19:25.379Z,9700
2017-10-02T10:20:05.820Z,9440
2017-10-02T10:20:46.252Z,9228
2017-10-02T10:21:26.722Z,9056
2017-10-02T10:23:39.506Z,8676
2017-10-02T10:24:19.986Z,8956
2017-10-02T10:25:00.446Z,9380
2017-10-02T10:25:40.932Z,9876